Flight Track Log - Related Links

Times and Time Zones

All times are in EDT time to prevent confusion due to time zone crossing. See the SWA508 flight status page for this flight to view local times or setup timezone preferences in your user account.

Time Position Orientation Groundspeed Altitude Reporting Facility
EDT Latitude Longitude Course Direction KTS MPH feet Rate Location/Type
Wed 11:01:02 AM 40.5278 -80.4083 289° West 233 268 7,200  Level Cleveland Center
Wed 11:02:02 AM 40.5486 -80.4983 287° West 233 268 10,600 2,750 Climbing Cleveland Center
Wed 11:03:02 AM 40.5694 -80.6022 285° West 263 303 12,700 2,500 Climbing Cleveland Center
Wed 11:04:02 AM 40.5967 -80.7225 287° West 313 360 15,600 2,950 Climbing Cleveland Center
Wed 11:05:00 AM 40.6201 -80.8638 288° West  Level FlightAware Approximate
Wed 11:05:02 AM 40.6233 -80.8483 286° West 338 389 18,600  Level Cleveland Center
Wed 11:06:02 AM 40.6503 -80.9772 285° West 355 409 21,700 2,750 Climbing Cleveland Center
Wed 11:07:02 AM 40.6747 -81.1142 283° West 375 432 24,100 2,050 Climbing Cleveland Center
Wed 11:08:02 AM 40.6989 -81.2375 285° West 375 432 25,800 2,000 Climbing Cleveland Center
Wed 11:09:02 AM 40.7272 -81.3750 285° West 382 440 28,100 2,100 Climbing Cleveland Center
Wed 11:10:02 AM 40.7639 -81.5069 290° West 392 451 30,000 950 Climbing Cleveland Center
Wed 11:11:02 AM 40.8044 -81.6364 293° West 387 445 30,000 50 Level Cleveland Center
Wed 11:12:02 AM 40.8508 -81.7800 293° West 387 445 30,100 1,000 Climbing Cleveland Center
Wed 11:13:02 AM 40.8911 -81.9097 292° West 387 445 32,000 950 Climbing Cleveland Center
Wed 11:14:02 AM 40.9333 -82.0369 294° West 387 445 32,000  Level Cleveland Center
Wed 11:15:02 AM 40.9733 -82.1644 293° West 376 433 32,000  Level Cleveland Center
Wed 11:16:02 AM 40.9986 -82.2917 285° West 369 425 32,000  Level Cleveland Center
Wed 11:17:02 AM 41.0175 -82.4214 281° West 354 407 32,000  Level Cleveland Center
Wed 11:18:02 AM 41.0381 -82.5569 281° West 359 413 32,000  Level Cleveland Center
Wed 11:19:02 AM 41.0569 -82.6731 282° West 359 413 32,000  Level Cleveland Center
Wed 11:20:02 AM 41.0753 -82.8006 281° West 359 413 32,000  Level Cleveland Center
Wed 11:21:02 AM 41.0978 -82.9333 283° West 359 413 32,000  Level Cleveland Center
Wed 11:22:02 AM 41.1181 -83.0639 282° West 359 413 32,000  Level Cleveland Center
Wed 11:23:02 AM 41.1356 -83.2078 279° West 359 413 32,000  Level Cleveland Center
Wed 11:24:02 AM 41.1553 -83.3383 281° West 359 413 32,000  Level Cleveland Center
Wed 11:25:02 AM 41.1750 -83.4714 281° West 359 413 32,000  Level Cleveland Center
Wed 11:26:02 AM 41.1947 -83.6022 281° West 359 413 32,000  Level Cleveland Center
Wed 11:27:02 AM 41.2161 -83.7356 282° West 365 420 32,000  Level Cleveland Center
Wed 11:28:02 AM 41.2353 -83.8692 281° West 370 426 32,000 -500 Level Cleveland Center
Wed 11:29:02 AM 41.2547 -83.9889 282° West 375 432 31,000 -670 Descending Cleveland Center
Wed 11:31:01 AM 41.2919 -84.2528 281° West 363 418 30,000 -331 Descending Chicago Center
Wed 11:32:03 AM 41.3100 -84.3867 280° West 367 422 30,000  Level Chicago Center
Wed 11:33:05 AM 41.3289 -84.5172 281° West 362 417 30,000  Level Chicago Center
Wed 11:34:07 AM 41.3442 -84.6394 279° West 339 390 30,000  Level Chicago Center
Wed 11:35:09 AM 41.3642 -84.7861 280° West 337 388 30,000 -244 Level Chicago Center
Wed 11:36:10 AM 41.3808 -84.9089 280° West 338 389 29,500 -732 Descending Chicago Center
Wed 11:37:12 AM 41.3975 -85.0306 280° West 335 386 28,500 -968 Descending Chicago Center
Wed 11:38:14 AM 41.4125 -85.1467 280° West 321 369 27,500 -968 Descending Chicago Center
Wed 11:39:16 AM 41.4269 -85.2586 280° West 309 356 26,500 -919 Descending Chicago Center
Wed 11:40:18 AM 41.4417 -85.3722 280° West 308 354 25,600 -919 Descending Chicago Center
Wed 11:41:20 AM 41.4572 -85.4894 280° West 314 361 24,600 -1,065 Descending Chicago Center
Wed 11:42:22 AM 41.4717 -85.6133 279° West 305 351 23,400 -1,258 Descending Chicago Center
Wed 11:43:24 AM 41.4775 -85.7111 275° West 295 339 22,000 -1,694 Descending Chicago Center
Wed 11:44:26 AM 41.4858 -85.8356 275° West 279 321 19,900 -1,839 Descending Chicago Center
Wed 11:45:28 AM 41.4933 -85.9400 276° West 281 323 18,200 -1,694 Descending Chicago Center
Wed 11:46:30 AM 41.5000 -86.0450 275° West 283 326 16,400 -1,645 Descending Chicago Center
Wed 11:47:32 AM 41.5069 -86.1461 275° West 276 318 14,800 -1,597 Descending Chicago Center
Wed 11:48:34 AM 41.5131 -86.2503 275° West 280 322 13,100 -1,694 Descending Chicago Center
Wed 11:49:36 AM 41.5203 -86.3583 275° West 289 333 11,300 -1,500 Descending Chicago Center
Wed 11:50:38 AM 41.5217 -86.4839 271° West 282 325 10,000 -677 Descending Chicago Center
Wed 11:51:40 AM 41.5219 -86.5883 270° West 282 325 9,900 -48 Descending Chicago Center
Wed 11:52:42 AM 41.5203 -86.6928 269° West 282 325 9,900  Level Chicago Center
Wed 11:53:44 AM 41.5197 -86.7814 270° West 259 298 9,900 -145 Level Chicago Center
Wed 11:54:46 AM 41.5186 -86.8936 269° West 253 291 9,600 -919 Descending Chicago Center
Wed 11:55:48 AM 41.5186 -86.9861 270° West 250 288 8,000 -1,355 Descending Chicago Center
Wed 11:56:50 AM 41.5325 -87.0778 281° West 253 291 6,800 -968 Descending Chicago Center
Wed 11:57:52 AM 41.5531 -87.1653 287° West 251 289 6,000 -387 Descending Chicago Center
Wed 11:58:54 AM 41.5708 -87.2489 286° West 241 277 6,000  Level Chicago Center
Wed 11:59:47 AM 41.5833 -87.3333 281° West 239 275 6,000  Level Chicago TRACON
Wed 12:00:48 PM 41.6000 -87.4333 283° West 235 270 6,000 -661 Level Chicago TRACON
Wed 12:01:54 PM 41.6333 -87.5167 298° West 238 274 4,600 -1,300 Descending Chicago TRACON
Wed 12:02:48 PM 41.6667 -87.5833 304° West 234 269 3,400 -800 Descending Chicago TRACON
Wed 12:03:54 PM 41.7000 -87.6333 312° West 201 231 3,000 -714 Descending Chicago TRACON
Wed 12:04:54 PM 41.7333 -87.6833 312° West 152 175 1,900 -895 Descending Chicago TRACON
Wed 12:05:48 PM 41.7667 -87.7167 323° Northwest 123 142 1,300 -667 Descending Chicago TRACON
Wed 12:08:00 PM 41.7833 -87.7500 334° Northwest  Level FlightAware Approximate

Login

Don't have an account? Register now (free) for customized features, flight alerts, and more!